createdAt,value
2018-12-09T00:00:53.310Z,308.13
2018-12-09T00:15:52.242Z,312.55
2018-12-09T00:30:51.136Z,281.80
2018-12-09T00:45:54.053Z,256.35
2018-12-09T01:00:50.419Z,151.15
2018-12-09T01:15:50.890Z,54.53
2018-12-09T01:30:51.324Z,21.80
2018-12-09T01:45:51.657Z,9.28
2018-12-09T02:00:51.581Z,8.15
2018-12-09T02:15:51.102Z,14.05
2018-12-09T02:30:52.328Z,8.33
2018-12-09T02:45:51.788Z,6.53
2018-12-09T03:00:51.284Z,5.28
2018-12-09T03:15:51.206Z,3.10
2018-12-09T03:30:51.575Z,4.65
2018-12-09T03:45:51.555Z,4.42
2018-12-09T04:00:51.964Z,3.80
2018-12-09T04:15:51.366Z,14.47
2018-12-09T04:30:50.759Z,12.20
2018-12-09T04:45:53.700Z,8.95
2018-12-09T05:00:55.778Z,9.25
2018-12-09T05:15:51.566Z,10.25
2018-12-09T05:30:52.441Z,7.47
2018-12-09T05:45:51.235Z,6.10
2018-12-09T06:00:50.642Z,7.30
2018-12-09T06:15:53.573Z,6.17
2018-12-09T06:30:50.386Z,7.72
2018-12-09T06:45:51.484Z,7.90
2018-12-09T07:00:50.650Z,10.03
2018-12-09T07:15:50.600Z,13.00
2018-12-09T07:30:51.174Z,9.13
2018-12-09T07:45:51.313Z,8.95
2018-12-09T08:00:51.111Z,8.93
2018-12-09T08:15:50.445Z,9.28
2018-12-09T14:45:50.967Z,33.02
2018-12-09T15:00:50.906Z,34.58
2018-12-09T15:15:51.487Z,45.30
2018-12-09T15:30:51.726Z,51.50
2018-12-09T15:45:52.048Z,63.33
2018-12-09T16:00:56.429Z,74.85
2018-12-09T16:15:51.800Z,77.67
2018-12-09T16:30:53.292Z,68.52
2018-12-09T16:45:50.588Z,52.67
2018-12-09T17:00:51.150Z,60.43
2018-12-09T17:15:54.036Z,88.72
2018-12-09T17:30:53.565Z,95.42
2018-12-09T17:45:51.474Z,91.20
2018-12-09T18:00:51.074Z,84.92
2018-12-09T18:15:54.727Z,97.88
2018-12-09T18:30:54.590Z,102.55
2018-12-09T18:45:57.234Z,90.07
2018-12-09T19:00:51.327Z,103.62
2018-12-09T19:15:55.097Z,129.93
2018-12-09T19:30:54.228Z,125.87
2018-12-09T19:45:51.484Z,107.65
2018-12-09T20:00:53.959Z,94.00
2018-12-09T20:15:54.848Z,85.97
2018-12-09T20:30:53.372Z,90.10
2018-12-09T20:45:51.965Z,74.35
2018-12-09T21:00:51.575Z,71.55
2018-12-09T21:15:52.346Z,64.75
2018-12-09T21:30:53.373Z,75.55
2018-12-09T21:45:50.699Z,68.60
2018-12-09T22:00:50.686Z,54.70
2018-12-09T22:15:51.121Z,50.40
2018-12-09T22:30:56.875Z,47.58
2018-12-09T22:45:54.196Z,45.73
2018-12-09T23:00:55.602Z,48.95
2018-12-09T23:15:50.399Z,37.65
2018-12-09T23:30:52.263Z,40.98
2018-12-09T23:45:52.643Z,39.45
